Terminal Aerodrome Forecast
Issued by NWS

Home | Current Version | Previous Version | Text Only | Print | Product List | Glossary On
Versions: 1 2 3 4 5 6 7 8 9 10 11 12
000
FTUS45 KRIW 282300
TAFWRL
TAF
KWRL 282324Z 2900/2924 VRB04KT P6SM FEW120
     FM290900 VRB04KT P6SM VCSH SCT090 BKN120
     FM291500 VRB04KT P6SM FEW090 SCT120
     FM292100 VRB10G15KT P6SM VCTS SCT080CB BKN120=

USA.gov is the U.S. government's official web portal to all federal, state and local government web resources and services.